createdAt,value
2019-04-01T00:00:47.487Z,99403.43
2019-04-01T00:01:57.133Z,99393.87
2019-04-01T00:03:07.797Z,99396.77
2019-04-01T00:04:15.967Z,99397.91
2019-04-01T00:05:23.995Z,99400.30
2019-04-01T00:06:32.082Z,99396.66
2019-04-01T00:07:40.382Z,99399.28
2019-04-01T00:08:48.514Z,99403.34
2019-04-01T00:09:56.673Z,99408.88
2019-04-01T00:11:05.577Z,99400.40
2019-04-01T00:12:13.924Z,99398.11
2019-04-01T00:13:22.302Z,99401.50
2019-04-01T00:14:30.389Z,99400.65
2019-04-01T00:15:38.419Z,99404.75
2019-04-01T00:16:46.427Z,99398.95
2019-04-01T00:17:54.973Z,99404.39
2019-04-01T00:19:04.415Z,99401.94
2019-04-01T00:20:14.109Z,99399.95
2019-04-01T00:21:22.229Z,99412.09
2019-04-01T00:22:30.441Z,99410.88
2019-04-01T00:23:38.571Z,99403.84
2019-04-01T00:24:46.783Z,99405.48
2019-04-01T00:25:55.300Z,99408.83
2019-04-01T00:27:03.354Z,99414.06
2019-04-01T00:28:11.798Z,99411.17
2019-04-01T00:29:20.055Z,99403.30
2019-04-01T00:30:28.366Z,99402.51
2019-04-01T00:31:36.451Z,99416.86
2019-04-01T00:32:44.543Z,99410.32
2019-04-01T00:33:52.451Z,99411.17
2019-04-01T00:35:01.046Z,99413.58
2019-04-01T00:36:09.535Z,99413.41
2019-04-01T00:37:17.532Z,99415.53
2019-04-01T00:38:25.382Z,99415.88
2019-04-01T00:39:33.240Z,99413.84
2019-04-01T00:40:41.112Z,99413.47
2019-04-01T00:41:56.195Z,99411.52
2019-04-01T00:43:09.001Z,99414.24
2019-04-01T00:44:17.718Z,99414.33
2019-04-01T00:45:27.342Z,99415.66
2019-04-01T00:46:35.423Z,99410.79
2019-04-01T00:47:43.668Z,99407.37
2019-04-01T00:48:51.835Z,99412.55
2019-04-01T00:50:00.233Z,99417.20
2019-04-01T00:51:08.731Z,99415.51
2019-04-01T00:52:16.856Z,99412.12
2019-04-01T00:53:24.971Z,99408.02
2019-04-01T00:54:33.225Z,99409.94
2019-04-01T00:55:41.444Z,99413.45
2019-04-01T00:56:49.453Z,99417.55
2019-04-01T00:57:57.512Z,99411.94
2019-04-01T00:59:05.939Z,99413.66
2019-04-01T01:00:15.037Z,99409.49
2019-04-01T01:01:23.424Z,99415.17
2019-04-01T01:02:31.394Z,99415.11
2019-04-01T01:03:39.646Z,99416.08
2019-04-01T01:04:47.762Z,99418.52
2019-04-01T01:05:56.289Z,99418.29
2019-04-01T01:07:04.351Z,99419.66
2019-04-01T01:08:12.905Z,99419.66
2019-04-01T01:09:21.111Z,99414.53
2019-04-01T01:10:29.284Z,99407.16
2019-04-01T01:11:37.337Z,99417.03
2019-04-01T01:12:45.534Z,99414.94
2019-04-01T01:13:54.150Z,99409.73
2019-04-01T01:15:02.345Z,99413.49
2019-04-01T01:16:10.442Z,99416.97
2019-04-01T01:17:19.949Z,99415.75
2019-04-01T01:18:28.015Z,99418.91
2019-04-01T01:19:35.983Z,99418.35
2019-04-01T01:20:44.575Z,99418.53
2019-04-01T01:21:52.793Z,99423.84
2019-04-01T01:23:00.733Z,99422.14
2019-04-01T01:24:08.953Z,99418.16
2019-04-01T01:25:17.191Z,99417.64
2019-04-01T01:26:25.398Z,99425.67
2019-04-01T01:27:33.324Z,99425.14
2019-04-01T01:28:41.449Z,99427.43
2019-04-01T01:29:49.376Z,99421.45
2019-04-01T01:30:57.476Z,99425.45
2019-04-01T01:32:05.754Z,99434.45
2019-04-01T01:33:14.664Z,99424.22
2019-04-01T01:34:22.778Z,99423.84
2019-04-01T01:35:30.711Z,99420.42
2019-04-01T01:36:38.585Z,99424.70
2019-04-01T01:37:46.543Z,99422.70
2019-04-01T01:38:54.399Z,99431.15
2019-04-01T01:40:02.483Z,99429.29
2019-04-01T01:41:10.777Z,99434.88
2019-04-01T01:42:18.925Z,99431.74
2019-04-01T01:43:27.007Z,99432.33
2019-04-01T01:44:34.903Z,99439.50
2019-04-01T01:45:42.956Z,99431.37
2019-04-01T01:46:51.305Z,99432.97
2019-04-01T01:47:59.232Z,99433.27
2019-04-01T01:49:07.230Z,99435.14
2019-04-01T01:50:15.502Z,99444.73
2019-04-01T01:51:23.479Z,99437.33
2019-04-01T01:52:31.330Z,99432.98
2019-04-01T01:53:41.628Z,99440.77
2019-04-01T01:54:49.007Z,99439.72
2019-04-01T01:55:56.963Z,99451.17
2019-04-01T01:57:05.002Z,99452.87
2019-04-01T01:58:13.088Z,99451.55
2019-04-01T01:59:21.197Z,99449.47
2019-04-01T02:00:30.213Z,99448.05
2019-04-01T02:01:38.163Z,99452.02
2019-04-01T02:02:46.008Z,99448.72
2019-04-01T02:03:53.905Z,99444.45
2019-04-01T02:05:01.776Z,99445.59
2019-04-01T02:06:09.819Z,99455.52
2019-04-01T02:07:18.340Z,99451.64
2019-04-01T02:08:26.266Z,99449.37
2019-04-01T02:09:34.473Z,99455.83
2019-04-01T02:10:42.589Z,99450.89
2019-04-01T02:11:50.436Z,99454.97
2019-04-01T02:12:59.155Z,99452.39
2019-04-01T02:14:07.161Z,99461.29
2019-04-01T02:15:15.321Z,99461.59
2019-04-01T02:16:23.353Z,99461.29
2019-04-01T02:17:31.382Z,99460.91
2019-04-01T02:18:39.373Z,99462.71
2019-04-01T02:19:47.544Z,99466.10
2019-04-01T02:20:55.454Z,99465.94
2019-04-01T02:22:03.561Z,99458.09
2019-04-01T02:23:11.570Z,99470.18
2019-04-01T02:24:19.945Z,99465.73
2019-04-01T02:25:28.158Z,99465.25
2019-04-01T02:26:36.046Z,99470.27
2019-04-01T02:27:43.956Z,99465.81
2019-04-01T02:28:52.210Z,99468.66
2019-04-01T02:30:00.036Z,99469.77
2019-04-01T02:31:08.293Z,99472.03
2019-04-01T02:32:16.363Z,99477.71
2019-04-01T02:33:24.607Z,99474.48
2019-04-01T02:34:34.258Z,99478.18
2019-04-01T02:35:42.310Z,99482.72
2019-04-01T02:36:50.435Z,99479.98
2019-04-01T02:37:58.650Z,99479.03
2019-04-01T02:39:09.801Z,99479.58
2019-04-01T02:40:21.717Z,99483.72
2019-04-01T02:41:27.720Z,99484.66
2019-04-01T02:42:35.939Z,99488.61
2019-04-01T02:43:44.052Z,99491.83
2019-04-01T02:44:52.280Z,99489.75
2019-04-01T02:46:00.400Z,99491.27
2019-04-01T02:47:08.470Z,99492.05
2019-04-01T02:48:16.802Z,99489.41
2019-04-01T02:49:24.809Z,99493.38
2019-04-01T02:50:32.756Z,99497.63
2019-04-01T02:51:40.935Z,99505.66
2019-04-01T02:52:49.149Z,99498.73
2019-04-01T02:53:57.333Z,99509.77
2019-04-01T02:55:07.510Z,99508.60
2019-04-01T02:56:15.791Z,99511.72
2019-04-01T02:57:24.167Z,99511.41
2019-04-01T02:58:32.278Z,99511.97
2019-04-01T02:59:40.281Z,99512.20
2019-04-01T03:00:48.132Z,99509.83
2019-04-01T03:01:56.321Z,99512.95
2019-04-01T03:03:04.581Z,99509.64
2019-04-01T03:04:12.954Z,99507.69
2019-04-01T03:05:21.916Z,99514.02
2019-04-01T03:06:29.917Z,99511.28
2019-04-01T03:07:38.270Z,99513.70
2019-04-01T03:08:46.510Z,99519.22
2019-04-01T03:09:54.764Z,99523.34
2019-04-01T03:11:02.754Z,99526.97
2019-04-01T03:12:12.019Z,99523.22
2019-04-01T03:13:20.173Z,99524.17
2019-04-01T03:14:28.816Z,99526.63
2019-04-01T03:15:36.732Z,99526.63
2019-04-01T03:16:45.017Z,99529.75
2019-04-01T03:17:53.004Z,99528.52
2019-04-01T03:19:01.097Z,99533.91
2019-04-01T03:20:09.601Z,99531.55
2019-04-01T03:21:17.523Z,99529.66
2019-04-01T03:22:25.823Z,99533.27
2019-04-01T03:23:34.100Z,99535.64
2019-04-01T03:24:42.406Z,99533.37
2019-04-01T03:25:50.710Z,99536.48
2019-04-01T03:27:00.143Z,99537.97
2019-04-01T03:28:08.215Z,99536.97
2019-04-01T03:29:16.460Z,99540.65
2019-04-01T03:30:24.705Z,99536.30
2019-04-01T03:31:32.815Z,99537.72
2019-04-01T03:32:45.173Z,99540.46
2019-04-01T03:33:51.030Z,99544.78
2019-04-01T03:34:58.978Z,99542.70
2019-04-01T03:36:06.954Z,99539.70
2019-04-01T03:37:15.361Z,99544.91
2019-04-01T03:38:27.675Z,99545.94
2019-04-01T03:39:33.749Z,99542.56
2019-04-01T03:40:41.874Z,99551.94
2019-04-01T03:41:50.036Z,99550.77
2019-04-01T03:42:58.501Z,99547.17
2019-04-01T03:44:06.920Z,99547.05
2019-04-01T03:45:15.034Z,99547.99
2019-04-01T03:46:23.037Z,99552.72
2019-04-01T03:47:31.043Z,99554.27
2019-04-01T03:48:39.100Z,99554.27
2019-04-01T03:49:47.026Z,99549.88
2019-04-01T03:50:55.344Z,99554.14
2019-04-01T03:52:03.446Z,99556.91
2019-04-01T03:53:12.122Z,99559.13
2019-04-01T03:54:20.125Z,99555.81
2019-04-01T03:55:28.451Z,99559.30
2019-04-01T03:56:36.400Z,99560.38
2019-04-01T03:57:44.527Z,99563.88
2019-04-01T03:58:52.866Z,99557.80
2019-04-01T04:00:01.006Z,99559.13
2019-04-01T04:01:08.996Z,99555.62
2019-04-01T04:02:16.974Z,99556.95
2019-04-01T04:03:25.850Z,99563.28
2019-04-01T04:04:33.746Z,99560.25
2019-04-01T04:05:41.862Z,99561.77
2019-04-01T04:06:50.064Z,99559.69
2019-04-01T04:07:58.085Z,99566.49
2019-04-01T04:09:07.402Z,99564.79
2019-04-01T04:10:15.813Z,99561.95
2019-04-01T04:11:23.906Z,99564.79
2019-04-01T04:12:31.974Z,99567.44
2019-04-01T04:13:39.996Z,99566.78
2019-04-01T04:14:51.247Z,99573.87
2019-04-01T04:15:58.040Z,99571.00
2019-04-01T04:17:06.027Z,99567.81
2019-04-01T04:18:14.121Z,99569.80
2019-04-01T04:19:22.291Z,99574.47
2019-04-01T04:20:30.520Z,99566.55
2019-04-01T04:21:38.555Z,99569.30
2019-04-01T04:22:46.994Z,99569.86
2019-04-01T04:23:55.054Z,99575.40
2019-04-01T04:25:03.416Z,99569.26
2019-04-01T04:26:11.935Z,99569.77
2019-04-01T04:27:20.139Z,99572.17
2019-04-01T04:28:28.579Z,99576.29
2019-04-01T04:29:36.624Z,99582.15
2019-04-01T04:30:44.750Z,99575.88
2019-04-01T04:31:52.654Z,99576.09
2019-04-01T04:33:00.776Z,99577.80
2019-04-01T04:34:08.978Z,99586.17
2019-04-01T04:35:17.113Z,99587.02
2019-04-01T04:36:25.204Z,99582.58
2019-04-01T04:37:34.532Z,99587.59
2019-04-01T04:38:42.941Z,99585.38
2019-04-01T04:39:50.937Z,99586.94
2019-04-01T04:40:58.890Z,99591.38
2019-04-01T04:42:06.876Z,99586.65
2019-04-01T04:43:14.793Z,99590.91
2019-04-01T04:44:22.896Z,99589.58
2019-04-01T04:45:30.991Z,99593.03
2019-04-01T04:46:38.908Z,99592.41
2019-04-01T04:47:47.021Z,99591.09
2019-04-01T04:48:55.186Z,99593.93
2019-04-01T04:50:03.212Z,99595.10
2019-04-01T04:51:11.015Z,99590.95
2019-04-01T04:52:19.107Z,99592.09
2019-04-01T04:53:27.119Z,99601.91
2019-04-01T04:54:35.882Z,99600.87
2019-04-01T04:55:44.009Z,99595.10
2019-04-01T04:56:51.978Z,99599.88
2019-04-01T04:58:00.096Z,99596.76
2019-04-01T04:59:08.147Z,99599.94
2019-04-01T05:00:16.728Z,99596.71
2019-04-01T05:01:24.910Z,99595.00
2019-04-01T05:02:33.488Z,99600.62
2019-04-01T05:03:41.953Z,99604.41
2019-04-01T05:04:50.092Z,99600.67
2019-04-01T05:05:58.861Z,99592.60
2019-04-01T05:07:07.162Z,99598.08
2019-04-01T05:08:15.201Z,99601.48
2019-04-01T05:09:23.208Z,99601.01
2019-04-01T05:10:31.907Z,99604.59
2019-04-01T05:11:39.750Z,99604.03
2019-04-01T05:12:48.031Z,99602.15
2019-04-01T05:13:58.563Z,99606.27
2019-04-01T05:15:08.246Z,99603.33
2019-04-01T05:16:16.380Z,99609.33
2019-04-01T05:17:24.450Z,99611.03
2019-04-01T05:18:32.574Z,99612.82
2019-04-01T05:19:40.422Z,99617.27
2019-04-01T05:20:48.946Z,99612.73
2019-04-01T05:21:58.368Z,99620.91
2019-04-01T05:23:07.640Z,99615.23
2019-04-01T05:24:16.950Z,99612.02
2019-04-01T05:25:25.469Z,99615.80
2019-04-01T05:26:36.134Z,99614.61
2019-04-01T05:27:45.603Z,99611.41
2019-04-01T05:28:55.183Z,99614.29
2019-04-01T05:30:06.753Z,99621.98
2019-04-01T05:31:17.510Z,99620.95
2019-04-01T05:32:27.569Z,99619.72
2019-04-01T05:33:37.726Z,99621.05
2019-04-01T05:34:47.131Z,99618.78
2019-04-01T05:35:55.228Z,99622.66
2019-04-01T05:37:03.424Z,99621.42
2019-04-01T05:38:11.638Z,99621.10
2019-04-01T05:39:20.542Z,99623.22
2019-04-01T05:40:28.962Z,99626.02
2019-04-01T05:41:37.687Z,99624.45
2019-04-01T05:42:45.905Z,99627.09
2019-04-01T05:43:54.773Z,99634.23
2019-04-01T05:45:02.931Z,99630.17
2019-04-01T05:46:11.167Z,99633.58
2019-04-01T05:47:21.039Z,99634.66
2019-04-01T05:48:30.945Z,99631.64
2019-04-01T05:49:39.137Z,99632.48
2019-04-01T05:50:47.549Z,99634.05
2019-04-01T05:51:55.648Z,99632.20
2019-04-01T05:53:03.537Z,99641.38
2019-04-01T05:54:11.537Z,99640.52
2019-04-01T05:55:19.648Z,99640.25
2019-04-01T05:56:27.659Z,99640.19
2019-04-01T05:57:36.010Z,99636.41
2019-04-01T05:58:44.363Z,99645.67
2019-04-01T05:59:52.473Z,99643.79
2019-04-01T06:01:08.511Z,99640.05
2019-04-01T06:02:16.589Z,99640.27
2019-04-01T06:03:25.744Z,99644.02
2019-04-01T06:04:33.783Z,99640.52
2019-04-01T06:05:41.911Z,99640.80
2019-04-01T06:06:51.968Z,99645.20
2019-04-01T06:08:00.179Z,99643.50
2019-04-01T06:09:09.650Z,99646.52
2019-04-01T06:10:18.102Z,99644.63
2019-04-01T06:11:26.226Z,99645.10
2019-04-01T06:12:34.533Z,99647.27
2019-04-01T06:13:43.114Z,99650.59
2019-04-01T06:14:51.508Z,99643.02
2019-04-01T06:15:59.829Z,99643.41
2019-04-01T06:17:08.106Z,99642.49
2019-04-01T06:18:16.534Z,99648.83
2019-04-01T06:19:25.345Z,99651.61
2019-04-01T06:20:33.633Z,99644.27
2019-04-01T06:21:42.229Z,99645.13
2019-04-01T06:22:50.721Z,99643.05
2019-04-01T06:23:59.672Z,99654.73
2019-04-01T06:25:08.880Z,99654.51
2019-04-01T06:26:17.476Z,99662.77
2019-04-01T06:27:26.327Z,99658.89
2019-04-01T06:28:35.447Z,99662.45
2019-04-01T06:29:45.456Z,99662.68
2019-04-01T06:30:53.957Z,99661.17
2019-04-01T06:32:02.310Z,99662.81
2019-04-01T06:33:10.689Z,99664.65
2019-04-01T06:34:20.375Z,99660.39
2019-04-01T06:35:28.557Z,99658.13
2019-04-01T06:36:38.804Z,99658.34
2019-04-01T06:37:46.563Z,99651.50
2019-04-01T06:38:54.783Z,99661.72
2019-04-01T06:40:03.575Z,99670.98
2019-04-01T06:41:11.775Z,99659.07
2019-04-01T06:42:20.858Z,99658.59
2019-04-01T06:43:29.062Z,99661.56
2019-04-01T06:44:37.152Z,99662.09
2019-04-01T06:45:45.530Z,99665.44
2019-04-01T06:46:53.718Z,99667.37
2019-04-01T06:48:03.845Z,99663.67
2019-04-01T06:49:12.346Z,99663.42
2019-04-01T06:50:21.042Z,99670.33
2019-04-01T06:51:29.601Z,99670.80
2019-04-01T06:52:37.694Z,99673.55
2019-04-01T06:53:46.059Z,99667.02
2019-04-01T06:54:54.351Z,99667.52
2019-04-01T06:56:02.566Z,99673.32
2019-04-01T06:57:10.904Z,99673.06
2019-04-01T06:58:19.881Z,99671.84
2019-04-01T06:59:28.061Z,99671.17
2019-04-01T07:00:36.166Z,99675.34
2019-04-01T07:01:44.501Z,99680.92
2019-04-01T07:02:52.988Z,99671.39
2019-04-01T07:04:01.090Z,99673.84
2019-04-01T07:05:12.410Z,99673.94
2019-04-01T07:06:19.022Z,99673.21
2019-04-01T07:07:28.844Z,99671.57
2019-04-01T07:08:37.190Z,99672.42
2019-04-01T07:09:45.755Z,99677.27
2019-04-01T07:10:54.468Z,99675.69
2019-04-01T07:12:02.757Z,99673.30
2019-04-01T07:13:10.776Z,99683.92
2019-04-01T07:14:19.331Z,99672.67
2019-04-01T07:15:27.663Z,99685.20
2019-04-01T07:16:35.897Z,99683.67
2019-04-01T07:17:44.488Z,99684.34
2019-04-01T07:18:52.595Z,99686.05
2019-04-01T07:20:00.534Z,99683.86
2019-04-01T07:21:08.634Z,99684.59
2019-04-01T07:22:17.296Z,99685.66
2019-04-01T07:23:25.973Z,99678.45
2019-04-01T07:24:34.013Z,99689.44
2019-04-01T07:25:43.571Z,99683.30
2019-04-01T07:26:51.566Z,99679.33
2019-04-01T07:27:59.756Z,99680.65
2019-04-01T07:29:07.731Z,99678.00
2019-04-01T07:30:16.845Z,99680.66
2019-04-01T07:31:24.970Z,99685.67
2019-04-01T07:32:33.751Z,99687.02
2019-04-01T07:33:41.851Z,99686.50
2019-04-01T07:34:51.589Z,99686.02
2019-04-01T07:35:59.889Z,99679.19
2019-04-01T07:37:08.210Z,99689.54
2019-04-01T07:38:16.538Z,99690.66
2019-04-01T07:39:25.003Z,99691.45
2019-04-01T07:40:33.082Z,99687.17
2019-04-01T07:41:41.499Z,99690.98
2019-04-01T07:42:50.001Z,99693.53
2019-04-01T07:43:58.265Z,99689.66
2019-04-01T07:45:08.272Z,99691.72
2019-04-01T07:46:16.777Z,99698.94
2019-04-01T07:47:24.875Z,99688.12
2019-04-01T07:48:33.240Z,99697.23
2019-04-01T07:49:41.550Z,99694.58
2019-04-01T07:50:49.572Z,99702.14
2019-04-01T07:51:57.788Z,99694.18
2019-04-01T07:53:05.838Z,99698.74
2019-04-01T07:54:14.056Z,99696.84
2019-04-01T07:55:22.414Z,99701.50
2019-04-01T07:56:30.543Z,99706.44
2019-04-01T07:57:38.789Z,99705.48
2019-04-01T07:58:47.353Z,99701.88
2019-04-01T07:59:56.961Z,99702.52
2019-04-01T08:01:05.427Z,99698.84
2019-04-01T08:02:13.582Z,99705.38
2019-04-01T08:03:21.819Z,99703.00
2019-04-01T08:04:29.766Z,99704.63
2019-04-01T08:05:37.912Z,99706.81
2019-04-01T08:06:46.075Z,99697.69
2019-04-01T08:07:54.606Z,99712.59
2019-04-01T08:09:02.944Z,99708.78
2019-04-01T08:10:11.946Z,99711.81
2019-04-01T08:11:20.016Z,99705.86
2019-04-01T08:12:28.388Z,99713.82
2019-04-01T08:13:36.554Z,99704.26
2019-04-01T08:14:45.111Z,99708.41
2019-04-01T08:15:53.347Z,99706.98
2019-04-01T08:17:01.513Z,99712.12
2019-04-01T08:18:09.797Z,99712.49
2019-04-01T08:19:18.061Z,99707.66
2019-04-01T08:20:26.181Z,99712.97
2019-04-01T08:21:34.737Z,99709.63
2019-04-01T08:22:43.379Z,99716.36
2019-04-01T08:23:51.856Z,99706.69
2019-04-01T08:24:59.943Z,99704.61
2019-04-01T08:26:08.028Z,99710.39
2019-04-01T08:27:16.088Z,99711.70
2019-04-01T08:28:24.235Z,99710.91
2019-04-01T08:29:32.436Z,99718.49
2019-04-01T08:30:40.606Z,99711.95
2019-04-01T08:31:49.035Z,99714.50
2019-04-01T08:32:57.065Z,99707.39
2019-04-01T08:34:05.700Z,99704.63
2019-04-01T08:35:14.045Z,99710.61
2019-04-01T08:36:22.352Z,99703.59
2019-04-01T08:37:30.971Z,99708.32
2019-04-01T08:38:39.247Z,99704.31
2019-04-01T08:39:47.556Z,99696.23
2019-04-01T08:40:55.573Z,99699.19
2019-04-01T08:42:04.293Z,99697.44
2019-04-01T08:43:12.862Z,99700.66
2019-04-01T08:44:21.014Z,99692.46
2019-04-01T08:45:29.262Z,99693.77
2019-04-01T08:46:37.240Z,99694.88
2019-04-01T08:47:46.095Z,99695.61
2019-04-01T08:48:54.315Z,99698.13
2019-04-01T08:50:04.240Z,99699.02
2019-04-01T08:51:12.515Z,99699.31
2019-04-01T08:52:20.845Z,99696.31
2019-04-01T08:53:29.841Z,99696.98
2019-04-01T08:54:37.945Z,99704.07
2019-04-01T08:55:46.142Z,99700.92
2019-04-01T08:56:54.137Z,99697.53
2019-04-01T08:58:02.323Z,99697.05
2019-04-01T08:59:10.932Z,99702.52
2019-04-01T09:00:19.151Z,99695.09
2019-04-01T09:01:34.959Z,99690.55
2019-04-01T09:02:37.116Z,99691.77
2019-04-01T09:03:45.079Z,99699.81
2019-04-01T09:04:53.756Z,99697.52
2019-04-01T09:06:01.791Z,99699.67
2019-04-01T09:07:10.083Z,99701.96
2019-04-01T09:08:17.975Z,99686.92
2019-04-01T09:09:28.781Z,99689.51
2019-04-01T09:10:37.185Z,99691.94
2019-04-01T09:11:45.923Z,99702.95
2019-04-01T09:12:54.760Z,99701.52
2019-04-01T09:14:03.968Z,99698.07
2019-04-01T09:15:12.188Z,99683.98
2019-04-01T09:16:21.928Z,99689.08
2019-04-01T09:17:30.148Z,99677.39
2019-04-01T09:18:38.418Z,99685.74
2019-04-01T09:19:46.452Z,99689.14
2019-04-01T09:20:54.982Z,99695.13
2019-04-01T09:22:03.149Z,99687.58
2019-04-01T09:23:11.507Z,99692.91
2019-04-01T09:24:19.453Z,99687.81
2019-04-01T09:25:27.615Z,99683.51
2019-04-01T09:26:35.588Z,99690.05
2019-04-01T09:27:43.833Z,99691.05
2019-04-01T09:28:51.951Z,99676.62
2019-04-01T09:30:00.492Z,99684.39
2019-04-01T09:31:08.461Z,99681.95
2019-04-01T09:32:16.496Z,99678.75
2019-04-01T09:33:24.461Z,99682.09
2019-04-01T09:34:32.807Z,99680.92
2019-04-01T09:35:41.190Z,99684.20
2019-04-01T09:36:49.522Z,99683.59
2019-04-01T09:37:58.039Z,99682.99
2019-04-01T09:39:07.888Z,99687.16
2019-04-01T09:40:16.261Z,99684.01
2019-04-01T09:41:24.659Z,99684.92
2019-04-01T09:42:32.791Z,99686.39
2019-04-01T09:43:41.160Z,99679.16
2019-04-01T09:44:49.423Z,99678.93
2019-04-01T09:45:57.557Z,99673.05
2019-04-01T09:47:05.870Z,99680.81
2019-04-01T09:48:14.312Z,99681.53
2019-04-01T09:49:22.465Z,99680.36
2019-04-01T09:50:31.074Z,99667.48
2019-04-01T09:51:48.554Z,99671.90
2019-04-01T09:52:48.709Z,99679.33
2019-04-01T09:53:56.946Z,99677.83
2019-04-01T09:55:06.438Z,99678.23
2019-04-01T09:56:14.834Z,99683.86
2019-04-01T09:57:22.934Z,99672.47
2019-04-01T09:58:31.447Z,99669.80
2019-04-01T09:59:39.335Z,99664.03
2019-04-01T10:00:52.861Z,99665.80
2019-04-01T10:01:58.701Z,99670.08
2019-04-01T10:03:07.583Z,99667.80
2019-04-01T10:04:15.810Z,99667.80
2019-04-01T10:05:24.213Z,99668.20
2019-04-01T10:06:32.313Z,99670.62
2019-04-01T10:07:40.534Z,99662.77
2019-04-01T10:08:49.046Z,99657.31
2019-04-01T10:09:57.140Z,99659.25
2019-04-01T10:11:05.416Z,99648.81
2019-04-01T10:12:13.643Z,99660.95
2019-04-01T10:13:21.757Z,99657.70
2019-04-01T10:14:30.116Z,99652.02
2019-04-01T10:15:38.415Z,99655.45
2019-04-01T10:16:46.375Z,99655.72
2019-04-01T10:17:54.503Z,99657.47
2019-04-01T10:19:02.691Z,99655.20
2019-04-01T10:20:11.336Z,99660.88
2019-04-01T10:21:19.615Z,99654.11
2019-04-01T10:22:27.676Z,99657.59
2019-04-01T10:23:35.807Z,99657.41
2019-04-01T10:24:43.698Z,99649.38
2019-04-01T10:25:52.010Z,99656.93
2019-04-01T10:27:00.807Z,99659.33
2019-04-01T10:28:09.169Z,99651.04
2019-04-01T10:29:17.169Z,99651.03
2019-04-01T10:30:26.067Z,99648.75
2019-04-01T10:31:34.311Z,99644.20
2019-04-01T10:32:42.203Z,99641.23
2019-04-01T10:33:50.175Z,99641.63
2019-04-01T10:34:58.020Z,99650.70
2019-04-01T10:36:06.183Z,99642.97
2019-04-01T10:37:14.201Z,99640.65
2019-04-01T10:38:22.592Z,99646.38
2019-04-01T10:39:30.640Z,99641.88
2019-04-01T10:40:38.486Z,99640.84
2019-04-01T10:41:46.360Z,99639.44
2019-04-01T10:42:54.506Z,99644.44
2019-04-01T10:44:04.876Z,99641.45
2019-04-01T10:45:13.102Z,99634.36
2019-04-01T10:46:21.150Z,99634.72
2019-04-01T10:47:29.281Z,99637.38
2019-04-01T10:48:37.448Z,99637.17
2019-04-01T10:49:45.540Z,99637.44
2019-04-01T10:50:53.615Z,99633.66
2019-04-01T10:52:01.874Z,99636.23
2019-04-01T10:53:09.814Z,99631.86
2019-04-01T10:54:18.255Z,99634.34
2019-04-01T10:55:26.432Z,99632.02
2019-04-01T10:56:35.997Z,99631.61
2019-04-01T10:57:44.187Z,99629.31
2019-04-01T10:58:52.465Z,99631.96
2019-04-01T11:00:00.482Z,99632.58
2019-04-01T11:01:08.989Z,99625.97
2019-04-01T11:02:18.568Z,99628.41
2019-04-01T11:03:26.836Z,99621.52
2019-04-01T11:04:34.815Z,99624.11
2019-04-01T11:05:42.962Z,99625.29
2019-04-01T11:06:51.295Z,99624.66
2019-04-01T11:07:59.448Z,99621.89
2019-04-01T11:09:11.181Z,99617.75
2019-04-01T11:10:19.815Z,99620.95
2019-04-01T11:11:28.191Z,99614.23
2019-04-01T11:12:36.476Z,99618.29
2019-04-01T11:13:44.491Z,99610.73
2019-04-01T11:14:52.682Z,99614.83
2019-04-01T11:16:00.650Z,99621.77
2019-04-01T11:17:08.790Z,99615.52
2019-04-01T11:18:16.855Z,99621.08
2019-04-01T11:19:25.165Z,99605.89
2019-04-01T11:20:33.209Z,99616.12
2019-04-01T11:21:41.247Z,99605.54
2019-04-01T11:22:49.447Z,99611.26
2019-04-01T11:23:57.645Z,99610.77
2019-04-01T11:25:09.221Z,99608.04
2019-04-01T11:26:17.831Z,99613.62
2019-04-01T11:27:26.043Z,99609.95
2019-04-01T11:28:34.747Z,99609.19
2019-04-01T11:29:43.053Z,99605.03
2019-04-01T11:30:51.565Z,99601.83
2019-04-01T11:31:59.790Z,99601.11
2019-04-01T11:33:08.195Z,99603.09
2019-04-01T11:34:16.707Z,99598.60
2019-04-01T11:35:24.757Z,99595.00
2019-04-01T11:36:32.888Z,99599.63
2019-04-01T11:37:41.702Z,99596.81
2019-04-01T11:38:50.134Z,99598.77
2019-04-01T11:39:58.385Z,99600.81
2019-04-01T11:41:06.917Z,99606.03
2019-04-01T11:42:15.747Z,99596.23
2019-04-01T11:43:23.990Z,99588.63
2019-04-01T11:44:32.231Z,99596.74
2019-04-01T11:45:40.743Z,99587.90
2019-04-01T11:46:48.964Z,99591.93
2019-04-01T11:47:57.218Z,99594.55
2019-04-01T11:49:05.614Z,99589.92
2019-04-01T11:50:13.932Z,99581.78
2019-04-01T11:51:32.401Z,99590.33
2019-04-01T11:52:31.748Z,99586.23
2019-04-01T11:53:39.952Z,99587.97
2019-04-01T11:54:48.020Z,99577.10
2019-04-01T11:55:56.099Z,99579.30
2019-04-01T11:57:05.181Z,99568.39
2019-04-01T11:58:13.560Z,99576.34
2019-04-01T11:59:21.654Z,99581.17
2019-04-01T12:00:29.654Z,99572.54
2019-04-01T12:01:37.767Z,99571.21
2019-04-01T12:02:46.298Z,99572.59
2019-04-01T12:03:54.759Z,99566.45
2019-04-01T12:05:02.857Z,99566.22
2019-04-01T12:06:10.981Z,99566.09
2019-04-01T12:07:18.998Z,99574.72
2019-04-01T12:08:27.462Z,99563.31
2019-04-01T12:09:35.558Z,99567.05
2019-04-01T12:10:43.961Z,99567.68
2019-04-01T12:11:52.054Z,99572.50
2019-04-01T12:13:00.433Z,99566.73
2019-04-01T12:14:08.435Z,99566.33
2019-04-01T12:15:16.591Z,99556.19
2019-04-01T12:16:24.708Z,99559.67
2019-04-01T12:17:32.785Z,99557.11
2019-04-01T12:18:41.156Z,99560.78
2019-04-01T12:19:49.142Z,99551.94
2019-04-01T12:20:57.151Z,99563.06
2019-04-01T12:22:05.349Z,99553.86
2019-04-01T12:23:13.737Z,99552.79
2019-04-01T12:24:22.453Z,99553.66
2019-04-01T12:25:30.542Z,99548.42
2019-04-01T12:26:38.476Z,99544.86
2019-04-01T12:27:46.622Z,99546.72
2019-04-01T12:28:54.631Z,99542.31
2019-04-01T12:30:02.665Z,99539.13
2019-04-01T12:31:12.870Z,99543.86
2019-04-01T12:32:20.952Z,99545.63
2019-04-01T12:33:29.208Z,99548.91
2019-04-01T12:34:36.969Z,99547.30
2019-04-01T12:35:44.932Z,99540.25
2019-04-01T12:36:52.985Z,99539.41
2019-04-01T12:38:01.029Z,99533.69
2019-04-01T12:39:09.830Z,99535.41
2019-04-01T12:40:18.297Z,99536.83
2019-04-01T12:41:26.297Z,99536.33
2019-04-01T12:42:34.574Z,99525.38
2019-04-01T12:43:43.079Z,99525.02
2019-04-01T12:44:51.119Z,99534.05
2019-04-01T12:45:59.194Z,99530.00
2019-04-01T12:47:07.671Z,99531.59
2019-04-01T12:48:16.034Z,99535.94
2019-04-01T12:49:24.180Z,99525.62
2019-04-01T12:50:32.272Z,99525.62
2019-04-01T12:51:40.371Z,99526.59
2019-04-01T12:52:49.132Z,99528.00
2019-04-01T12:53:57.481Z,99526.59
2019-04-01T12:55:07.779Z,99527.91
2019-04-01T12:56:15.915Z,99521.74
2019-04-01T12:57:24.350Z,99525.20
2019-04-01T12:58:32.575Z,99525.75
2019-04-01T12:59:40.598Z,99514.52
2019-04-01T13:00:48.872Z,99520.09
2019-04-01T13:01:57.096Z,99518.47
2019-04-01T13:03:05.333Z,99521.26
2019-04-01T13:04:13.528Z,99513.81
2019-04-01T13:05:22.070Z,99514.22
2019-04-01T13:06:31.051Z,99511.23
2019-04-01T13:07:39.117Z,99510.64
2019-04-01T13:08:47.226Z,99506.84
2019-04-01T13:09:57.167Z,99514.63
2019-04-01T13:11:05.497Z,99513.02
2019-04-01T13:12:13.949Z,99507.53
2019-04-01T13:13:22.802Z,99506.54
2019-04-01T13:14:30.988Z,99499.39
2019-04-01T13:15:39.003Z,99508.73
2019-04-01T13:16:47.178Z,99499.58
2019-04-01T13:17:55.275Z,99501.91
2019-04-01T13:19:03.364Z,99511.31
2019-04-01T13:20:11.742Z,99505.08
2019-04-01T13:21:19.752Z,99510.01
2019-04-01T13:22:27.824Z,99508.09
2019-04-01T13:23:36.094Z,99504.09